CYMT

Chapais Airport

Chibougamau, Quebec, Canada
TAF CYMT 211738Z 2118/2201 33010KT P6SM SKC RMK FCST BASED ON AUTO OBS. NXT FCST WILL BE ISSUED AT 221245Z
Issued Valid From Valid To
Jan-21 @ 17:38 UTC
(7 hours ago)
Jan-21 @ 18:00 UTC
(6 hours ago)
Jan-22 @ 01:00 UTC
(in 49 minutes)
Jan-21 @ 18:00 to Jan-22 @ 01:00
TAF CYMT 211738Z 2118/2201 33010KT P6SM SKC RMK FCST BASED ON AUTO OBS. NXT FCST WILL BE ISSUED AT 221245Z
Wind Visibility Clouds
330° at 10 knots Greater than 6 miles
  • Clear skies
TAF CYMT 211738Z 2118/2201 33010KT P6SM SKC RMK FCST BASED ON AUTO OBS. NXT FCST WILL BE ISSUED AT 221245Z
Issued Jan-21 @ 17:38 UTC
(7 hours ago)
Valid From Jan-21 @ 18:00 UTC
(6 hours ago)
Valid To Jan-22 @ 01:00 UTC
(in 49 minutes)
Jan-21 @ 18:00 - Jan-22 @ 01:00
Wind Visibility
330° at 10 knots Greater than 6 miles
Clouds
  • Clear skies